Stations météo

réclame
Mon MeteoGroup
Lycksele, Suède (2262): Température de l'air & dewpoint: 28.06.2020 12:00:00 - 04.07.2020 12:00:00 (CEST)Lycksele, Suède (2262): Vitesse du vent: 28.06.2020 12:00:00 - 04.07.2020 12:00:00 (CEST)Lycksele, Suède (2262): Direction du vent: 28.06.2020 12:00:00 - 04.07.2020 12:00:00 (CEST)Lycksele, Suède (2262): visibility: 28.06.2020 12:00:00 - 04.07.2020 12:00:00 (CEST)
Date & Time tt [°C] td [°C] ff [km/h] ff [knt] dd vv [km]
04.07.2020 12:00:00 11,0 9,0 15 8 E 10
04.07.2020 11:00:00 9,0 8,0 0 0 N 10
04.07.2020 10:00:00 8,0 7,0 9 5 NNE 10
04.07.2020 09:00:00 7,0 6,0 4 2 - 6
04.07.2020 08:00:00 6,0 6,0 5 3 W 6
04.07.2020 07:00:00 7,0 6,0 8 4 ENE 10
04.07.2020 06:00:00 5,0 5,0 2 1 - 10
04.07.2020 05:00:00 4,0 3,0 0 0 N 0,4
04.07.2020 04:00:00 3,0 3,0 4 2 - 0,1
04.07.2020 03:00:00 2,0 2,0 4 2 - 0,1
04.07.2020 02:00:00 2,0 1,0 4 2 SSW 0,2
04.07.2020 01:00:00 2,0 2,0 4 2 SW 10
04.07.2020 00:00:00 3,0 3,0 0 0 N 10
03.07.2020 23:00:00 5,0 5,0 4 2 SSE 10
03.07.2020 22:00:00 7,0 6,0 5 3 WSW 10
03.07.2020 21:00:00 10,0 6,0 8 4 WNW 10
03.07.2020 20:00:00 12,0 5,0 15 8 WNW 10
03.07.2020 19:00:00 12,0 5,0 15 8 WNW 10
03.07.2020 18:00:00 12,0 6,0 11 6 WNW 10
03.07.2020 17:00:00 10,0 5,0 16 9 NW 10
03.07.2020 16:00:00 10,0 6,0 18 10 NNW 10
03.07.2020 15:00:00 10,0 6,0 11 6 NW 10
03.07.2020 14:00:00 10,0 6,0 11 6 NW 10
03.07.2020 13:00:00 9,0 7,0 15 8 WNW 5
03.07.2020 12:00:00 8,0 6,0 15 8 WNW 10
03.07.2020 11:00:00 8,0 5,0 22 12 NW 10
03.07.2020 10:00:00 - - - - - -
03.07.2020 09:00:00 8,0 6,0 18 10 NNW 10
03.07.2020 08:00:00 8,0 6,0 16 9 NNW 10
03.07.2020 07:00:00 8,0 6,0 16 9 NNW 10
03.07.2020 06:00:00 8,0 7,0 11 6 NNW 10
03.07.2020 05:00:00 8,0 7,0 9 5 NNW 10
03.07.2020 04:00:00 8,0 7,0 9 5 N 10
03.07.2020 03:00:00 7,0 7,0 5 3 WNW 7
03.07.2020 02:00:00 7,0 7,0 0 0 N 10
03.07.2020 01:00:00 8,0 6,0 9 5 SE 10
03.07.2020 00:00:00 10,0 6,0 13 7 ESE 10
02.07.2020 23:00:00 9,0 6,0 8 4 SSE 10
02.07.2020 22:00:00 11,0 5,0 24 13 SE 10
02.07.2020 21:00:00 13,0 3,0 18 10 SE 10
02.07.2020 20:00:00 14,0 1,0 9 5 S 10
02.07.2020 19:00:00 15,0 1,0 8 4 SSW 10
02.07.2020 18:00:00 15,0 0,0 9 5 SSW 10
02.07.2020 17:00:00 17,0 -1,0 9 5 SE 10
02.07.2020 16:00:00 17,0 -1,0 9 5 WNW 10
02.07.2020 15:00:00 17,0 -2,0 8 4 - 10
02.07.2020 14:00:00 16,0 -2,0 8 4 W 10
02.07.2020 13:00:00 16,0 -1,0 9 5 - 10
02.07.2020 12:00:00 15,0 -1,0 8 4 - 10
02.07.2020 11:00:00 14,0 0,0 15 8 WNW 10
02.07.2020 10:00:00 12,0 0,0 11 6 SW 10
02.07.2020 09:00:00 11,0 0,0 15 8 W 10
02.07.2020 08:00:00 10,0 1,0 16 9 WNW 10
02.07.2020 07:00:00 9,0 1,0 13 7 W 10
02.07.2020 06:00:00 7,0 1,0 11 6 W 10
02.07.2020 05:00:00 5,0 0,0 9 5 W 10
02.07.2020 04:00:00 4,0 0,0 8 4 WSW 10
02.07.2020 03:00:00 4,0 0,0 9 5 WSW 10
02.07.2020 02:00:00 4,0 0,0 9 5 WSW 10
02.07.2020 01:00:00 5,0 1,0 9 5 W 10
02.07.2020 00:00:00 8,0 1,0 13 7 W 10
01.07.2020 23:00:00 9,0 0,0 13 7 W 10
01.07.2020 22:00:00 11,0 1,0 15 8 W 10
01.07.2020 21:00:00 12,0 0,0 16 9 W 10
01.07.2020 20:00:00 13,0 1,0 21 11 WNW 10
01.07.2020 19:00:00 13,0 0,0 24 13 WNW 10
01.07.2020 18:00:00 14,0 -1,0 21 11 WNW 10
01.07.2020 17:00:00 14,0 0,0 22 12 WNW 10
01.07.2020 16:00:00 16,0 0,0 21 11 WNW 10
01.07.2020 15:00:00 14,0 1,0 28 15 NW 10
01.07.2020 14:00:00 14,0 2,0 24 13 WNW 10
01.07.2020 13:00:00 14,0 3,0 18 10 W 10
01.07.2020 12:00:00 13,0 4,0 22 12 WNW 10
01.07.2020 11:00:00 11,0 5,0 22 12 NW 10
01.07.2020 10:00:00 10,0 5,0 26 14 WNW 10
01.07.2020 09:00:00 10,0 6,0 22 12 WNW 10
01.07.2020 08:00:00 9,0 6,0 22 12 WNW 10
01.07.2020 07:00:00 10,0 7,0 22 12 WNW 10
01.07.2020 06:00:00 10,0 7,0 22 12 WNW 10
01.07.2020 05:00:00 10,0 7,0 18 10 WNW 10
01.07.2020 04:00:00 10,0 7,0 21 11 WNW 10
01.07.2020 03:00:00 10,0 8,0 16 9 WNW 10
01.07.2020 02:00:00 - - - - - -
01.07.2020 01:00:00 11,0 7,0 18 10 WNW 10
01.07.2020 00:00:00 11,0 6,0 15 8 W 10
30.06.2020 23:00:00 12,0 7,0 18 10 WNW 10
30.06.2020 22:00:00 15,0 9,0 26 14 WNW 10
30.06.2020 21:00:00 18,0 9,0 15 8 WNW 10
30.06.2020 20:00:00 19,0 8,0 9 5 NW 10
30.06.2020 19:00:00 21,0 7,0 15 8 NW 10
30.06.2020 18:00:00 21,0 6,0 15 8 W 10
30.06.2020 17:00:00 22,0 8,0 15 8 WNW 10
30.06.2020 16:00:00 22,0 8,0 16 9 W 10
30.06.2020 15:00:00 21,0 7,0 15 8 W 10
30.06.2020 14:00:00 22,0 8,0 13 7 SW 10
30.06.2020 13:00:00 22,0 7,0 13 7 SSW 10
30.06.2020 12:00:00 20,0 8,0 13 7 WSW 10
30.06.2020 11:00:00 20,0 10,0 13 7 W 10
30.06.2020 10:00:00 19,0 12,0 9 5 SSW 10
30.06.2020 09:00:00 17,0 11,0 5 3 SSW 10
30.06.2020 08:00:00 16,0 12,0 4 2 - 10
30.06.2020 07:00:00 15,0 12,0 8 4 WSW 10
30.06.2020 06:00:00 14,0 12,0 0 0 N 10
30.06.2020 05:00:00 14,0 12,0 9 5 ESE 10
30.06.2020 04:00:00 10,0 10,0 2 1 - 8
30.06.2020 03:00:00 10,0 9,0 4 2 - 3,4
30.06.2020 02:00:00 10,0 8,0 21 11 WNW 10
30.06.2020 01:00:00 13,0 13,0 5 3 SE 10
30.06.2020 00:00:00 13,0 13,0 8 4 SE 10
29.06.2020 23:00:00 15,0 13,0 11 6 ESE 10
29.06.2020 22:00:00 15,0 14,0 13 7 ESE 10
29.06.2020 21:00:00 14,0 14,0 9 5 SE 6
29.06.2020 20:00:00 14,0 14,0 16 9 SE 10
29.06.2020 19:00:00 15,0 13,0 21 11 SE 10
29.06.2020 18:00:00 15,0 14,0 18 10 SE 9
29.06.2020 17:00:00 16,0 15,0 15 8 SE 10
29.06.2020 16:00:00 16,0 15,0 18 10 SE 10
29.06.2020 15:00:00 17,0 15,0 21 11 SE 10
29.06.2020 14:00:00 17,0 14,0 21 11 SSE 10
29.06.2020 13:00:00 22,0 14,0 26 14 SE 10
29.06.2020 12:00:00 23,0 13,0 18 10 ESE 10
29.06.2020 11:00:00 21,0 12,0 8 4 ESE 10
29.06.2020 10:00:00 18,0 11,0 5 3 - 10
29.06.2020 09:00:00 15,0 10,0 2 1 - 10
29.06.2020 08:00:00 14,0 9,0 4 2 - 10
29.06.2020 07:00:00 14,0 8,0 5 3 WNW 10
29.06.2020 06:00:00 13,0 8,0 2 1 - 10
29.06.2020 05:00:00 12,0 9,0 0 0 N 10
29.06.2020 04:00:00 10,0 8,0 0 0 N 10
29.06.2020 03:00:00 10,0 7,0 4 2 SW 10
29.06.2020 02:00:00 11,0 8,0 4 2 - 10
29.06.2020 01:00:00 13,0 8,0 11 6 E 10
29.06.2020 00:00:00 15,0 8,0 13 7 ESE 10
28.06.2020 23:00:00 16,0 8,0 11 6 ESE 10
28.06.2020 22:00:00 18,0 8,0 15 8 E 10
28.06.2020 21:00:00 20,0 8,0 18 10 E 10
28.06.2020 20:00:00 21,0 8,0 18 10 E 10
28.06.2020 19:00:00 22,0 8,0 18 10 E 10
28.06.2020 18:00:00 22,0 7,0 16 9 ENE 10
28.06.2020 17:00:00 23,0 8,0 15 8 E 10
28.06.2020 16:00:00 22,0 6,0 8 4 ESE 10
28.06.2020 15:00:00 22,0 7,0 16 9 SE 10
28.06.2020 14:00:00 22,0 7,0 15 8 SE 10
28.06.2020 13:00:00 22,0 8,0 11 6 SE 10
28.06.2020 12:00:00 20,0 8,0 15 8 SE 10

tt = Température de l'air
td = dewpoint
ff = Vitesse du vent
dd = Direction du vent
vv = visibility

stations d'obs. à proximité